Time;durP1;ratioP1;P1;durP2;ratioP2;P2;SDS_P1;SDS_P2;PMS_P1;PMS_P2;Temp;Humidity;BMP_temperature;BMP_pressure;BME280_temperature;BME280_humidity;BME280_pressure;Samples;Min_cycle;Max_cycle;Signal;HPM_P1;HPM_P2
2024/01/26 00:02:06;;;;;;;10.05;4.32;;;9.60;99.90;;;;;;4907534;29;20024;-76
2024/01/26 00:04:56;;;;;;;7.30;4.22;;;9.60;99.90;;;;;;4907524;29;20315;-76
2024/01/26 00:07:25;;;;;;;8.57;4.70;;;9.60;99.90;;;;;;4907559;29;20077;-75
2024/01/26 00:17:27;;;;;;;3.53;1.20;;;9.60;99.90;;;;;;4905079;29;20044;-76
2024/01/26 00:20:29;;;;;;;2.47;1.30;;;9.80;99.90;;;;;;4904666;29;20029;-76
2024/01/26 00:23:25;;;;;;;2.65;1.00;;;9.90;99.90;;;;;;4904874;29;20271;-75
2024/01/26 00:29:27;;;;;;;2.60;1.10;;;10.00;99.90;;;;;;4889679;29;20227;-76
2024/01/26 00:32:26;;;;;;;2.50;1.27;;;10.10;99.90;;;;;;4915335;29;20108;-76
2024/01/26 00:34:55;;;;;;;2.67;1.00;;;10.10;99.90;;;;;;4907837;29;20044;-75
2024/01/26 00:37:29;;;;;;;2.50;1.10;;;10.10;99.90;;;;;;4908019;29;20044;-76
2024/01/26 00:39:54;;;;;;;2.95;0.80;;;10.10;99.90;;;;;;4910903;29;20111;-76
2024/01/26 00:42:42;;;;;;;2.13;1.00;;;10.10;99.90;;;;;;4927782;29;20028;-77
2024/01/26 00:45:08;;;;;;;2.55;1.10;;;10.10;99.90;;;;;;4927526;29;20055;-76
2024/01/26 00:51:06;;;;;;;2.03;0.73;;;10.10;99.90;;;;;;4919699;29;20205;-76
2024/01/26 00:53:32;;;;;;;2.17;0.70;;;10.10;99.90;;;;;;4945510;29;20047;-76
2024/01/26 00:56:13;;;;;;;1.83;0.93;;;10.10;99.90;;;;;;4947407;29;20032;-77
2024/01/26 00:58:39;;;;;;;1.63;0.80;;;10.10;99.90;;;;;;4947910;29;20047;-74
2024/01/26 01:01:17;;;;;;;2.22;0.80;;;10.10;99.90;;;;;;4948602;29;20047;-75
2024/01/26 01:03:46;;;;;;;1.48;0.63;;;10.10;99.90;;;;;;4947067;29;20031;-76
2024/01/26 01:10:33;;;;;;;2.22;0.63;;;10.10;99.90;;;;;;4938173;29;20103;-76
2024/01/26 01:12:59;;;;;;;1.52;0.80;;;10.10;99.90;;;;;;4924792;29;20344;-75
2024/01/26 01:15:31;;;;;;;2.67;0.50;;;10.20;99.90;;;;;;4939465;29;20023;-75
2024/01/26 01:18:26;;;;;;;2.63;0.68;;;10.20;99.90;;;;;;4930542;29;20337;-76
2024/01/26 01:20:59;;;;;;;1.70;0.70;;;10.10;99.90;;;;;;4946369;29;20356;-76
2024/01/26 01:23:25;;;;;;;1.77;0.50;;;10.20;99.90;;;;;;4947024;29;20047;-75
2024/01/26 01:25:54;;;;;;;1.60;0.60;;;10.20;99.90;;;;;;4930813;29;20023;-76
2024/01/26 01:28:28;;;;;;;2.17;0.45;;;10.20;99.90;;;;;;4931645;29;20405;-76
2024/01/26 01:31:20;;;;;;;2.08;0.65;;;10.20;99.90;;;;;;4935629;29;20074;-75
2024/01/26 01:33:54;;;;;;;3.17;0.73;;;10.20;99.90;;;;;;4947322;29;20039;-75
2024/01/26 01:36:29;;;;;;;1.58;0.55;;;10.20;99.90;;;;;;4930835;29;20384;-77
2024/01/26 01:39:43;;;;;;;1.17;0.50;;;10.20;99.90;;;;;;4934565;29;20036;-76
2024/01/26 01:45:31;;;;;;;1.73;0.60;;;10.10;99.90;;;;;;4947666;29;20026;-74
2024/01/26 01:48:28;;;;;;;1.08;0.50;;;10.10;99.90;;;;;;4956408;29;20063;-75
2024/01/26 01:54:40;;;;;;;1.45;0.45;;;10.10;99.90;;;;;;4966823;29;20054;-76
2024/01/26 02:01:04;;;;;;;1.38;0.40;;;10.10;99.90;;;;;;4914342;29;20067;-76
2024/01/26 02:04:06;;;;;;;1.20;0.40;;;10.00;99.90;;;;;;4941872;29;20254;-76
2024/01/26 02:06:35;;;;;;;1.65;0.57;;;10.00;99.90;;;;;;4930170;29;20028;-77
2024/01/26 02:09:32;;;;;;;1.38;0.50;;;10.00;99.90;;;;;;4947030;29;20035;-77
2024/01/26 02:12:41;;;;;;;1.77;0.50;;;10.00;99.90;;;;;;4914328;29;20110;-78
2024/01/26 02:15:13;;;;;;;1.30;0.40;;;10.00;99.90;;;;;;4930232;29;20317;-75
2024/01/26 02:17:58;;;;;;;1.33;0.40;;;10.00;99.90;;;;;;4946362;29;20039;-76
2024/01/26 02:20:27;;;;;;;1.10;0.30;;;10.00;99.90;;;;;;4930054;29;20111;-78
2024/01/26 02:23:56;;;;;;;1.45;0.57;;;10.00;99.90;;;;;;4946695;29;20047;-76
2024/01/26 02:26:52;;;;;;;2.95;1.27;;;9.90;99.90;;;;;;4841146;29;20030;-76
2024/01/26 02:29:18;;;;;;;3.00;1.02;;;9.90;99.90;;;;;;4818196;29;20037;-75
2024/01/26 02:31:44;;;;;;;0.95;0.30;;;9.90;99.90;;;;;;4838086;29;20049;-74
2024/01/26 02:34:12;;;;;;;1.73;0.50;;;9.90;99.90;;;;;;4854165;29;20103;-75
2024/01/26 02:36:44;;;;;;;;;;;9.90;99.90;;;;;;4854367;29;20065;-76
2024/01/26 02:39:10;;;;;;;1.85;0.30;;;9.90;99.90;;;;;;4869394;29;19912;-75
2024/01/26 02:41:44;;;;;;;0.65;0.25;;;9.90;99.90;;;;;;4854160;29;20323;-76
2024/01/26 02:44:10;;;;;;;0.77;0.30;;;9.90;99.90;;;;;;4867539;29;20054;-77
2024/01/26 02:46:36;;;;;;;0.40;0.20;;;9.90;99.90;;;;;;4869206;29;20042;-75
2024/01/26 02:49:13;;;;;;;1.40;0.30;;;9.90;99.90;;;;;;4870810;29;20312;-76
2024/01/26 02:51:54;;;;;;;0.75;0.20;;;10.00;99.90;;;;;;4856287;29;20045;-76
2024/01/26 02:54:27;;;;;;;0.50;0.20;;;10.00;99.90;;;;;;4872631;29;20470;-76
2024/01/26 02:56:56;;;;;;;1.52;0.30;;;10.00;99.90;;;;;;4871563;29;20040;-76
2024/01/26 02:59:23;;;;;;;0.77;0.20;;;10.10;99.90;;;;;;4902117;29;20043;-78
2024/01/26 03:01:49;;;;;;;1.55;0.17;;;10.10;99.90;;;;;;4958536;28;20309;-76
2024/01/26 03:04:19;;;;;;;0.50;0.20;;;10.10;99.90;;;;;;4936037;29;20094;-76
2024/01/26 03:07:14;;;;;;;0.70;0.20;;;10.00;99.90;;;;;;4913336;29;20031;-77
2024/01/26 03:10:23;;;;;;;1.80;0.40;;;10.10;99.90;;;;;;4913545;29;20261;-77
2024/01/26 03:13:07;;;;;;;0.82;0.22;;;10.10;99.90;;;;;;4945796;29;20031;-77
2024/01/26 03:15:32;;;;;;;1.48;0.47;;;10.10;99.90;;;;;;4928975;29;20032;-75
2024/01/26 03:17:58;;;;;;;1.52;0.30;;;10.10;99.90;;;;;;4928748;29;20234;-76
2024/01/26 03:20:24;;;;;;;1.17;0.30;;;10.10;99.90;;;;;;4948860;29;20047;-78
2024/01/26 03:22:49;;;;;;;0.80;0.20;;;10.10;99.90;;;;;;4944345;29;20356;-76
2024/01/26 03:25:15;;;;;;;1.95;0.77;;;10.10;99.90;;;;;;4948004;29;20090;-76
2024/01/26 03:27:41;;;;;;;1.17;0.30;;;10.00;99.90;;;;;;4947810;29;20023;-76
2024/01/26 03:30:34;;;;;;;1.52;0.50;;;10.00;99.90;;;;;;4948084;29;20054;-77
2024/01/26 03:33:19;;;;;;;1.10;0.20;;;10.00;99.90;;;;;;4964457;29;20039;-77
2024/01/26 03:36:29;;;;;;;0.90;0.50;;;10.00;99.90;;;;;;4964583;29;20313;-77
2024/01/26 03:38:55;;;;;;;1.42;0.50;;;10.00;99.90;;;;;;4938846;29;20039;-77
2024/01/26 03:42:04;;;;;;;1.80;0.50;;;10.00;99.90;;;;;;4950002;29;20035;-77
2024/01/26 03:45:02;;;;;;;1.25;0.50;;;9.90;99.90;;;;;;4950787;29;20095;-77
2024/01/26 03:48:01;;;;;;;1.73;0.65;;;9.90;99.90;;;;;;4949197;29;20071;-75
2024/01/26 03:51:20;;;;;;;2.10;0.70;;;9.80;99.90;;;;;;4947406;29;20038;-76
2024/01/26 03:54:14;;;;;;;0.73;0.40;;;9.80;99.90;;;;;;4947031;29;20027;-76
2024/01/26 03:57:21;;;;;;;2.53;0.60;;;9.80;99.90;;;;;;4957944;29;20061;-77
2024/01/26 03:59:59;;;;;;;1.60;0.70;;;9.80;99.90;;;;;;4945566;29;20198;-75
2024/01/26 04:02:25;;;;;;;;;;;9.80;99.90;;;;;;4932584;29;20246;-76
2024/01/26 04:08:38;;;;;;;2.17;0.80;;;9.70;99.90;;;;;;4964550;29;20042;-76
2024/01/26 04:14:57;;;;;;;1.20;0.50;;;9.70;99.90;;;;;;4848757;29;20104;-77
2024/01/26 04:17:25;;;;;;;1.60;0.65;;;9.70;99.90;;;;;;4863091;29;20029;-76
2024/01/26 04:19:51;;;;;;;1.45;0.60;;;9.60;99.90;;;;;;4852211;29;20125;-75
2024/01/26 04:22:20;;;;;;;2.08;0.60;;;9.60;99.90;;;;;;4852726;29;20394;-74
2024/01/26 04:25:53;;;;;;;1.25;0.55;;;9.60;99.90;;;;;;4856157;29;20044;-76
2024/01/26 04:28:54;;;;;;;2.10;0.70;;;9.60;99.90;;;;;;4798467;29;20062;-77
2024/01/26 04:31:44;;;;;;;3.00;0.52;;;9.60;99.90;;;;;;4811641;29;20323;-76
2024/01/26 04:34:10;;;;;;;1.38;0.55;;;9.50;99.90;;;;;;4797659;29;20050;-75
2024/01/26 04:37:00;;;;;;;1.63;0.70;;;9.50;99.90;;;;;;4800693;29;20259;-75
2024/01/26 04:40:48;;;;;;;;;;;;;;;;;;;;;
2024/01/26 04:43:29;;;;;;;2.97;1.10;;;9.40;99.90;;;;;;4797355;29;20065;-78
2024/01/26 04:46:26;;;;;;;2.55;1.00;;;9.40;99.90;;;;;;4797344;29;20050;-76
2024/01/26 04:49:04;;;;;;;3.30;1.17;;;9.30;99.90;;;;;;4794340;30;20047;-77
2024/01/26 04:51:56;;;;;;;3.10;1.20;;;9.30;99.90;;;;;;4833900;29;20067;-75
2024/01/26 04:54:21;;;;;;;2.55;1.10;;;9.30;99.90;;;;;;4849371;29;20113;-76
2024/01/26 04:57:30;;;;;;;2.38;0.90;;;9.30;99.90;;;;;;4833561;29;20042;-76
2024/01/26 05:00:18;;;;;;;2.97;1.05;;;9.30;99.90;;;;;;4916142;29;20044;-76
2024/01/26 05:03:00;;;;;;;3.15;1.17;;;9.30;99.90;;;;;;4921382;29;20340;-76
2024/01/26 05:05:27;;;;;;;2.08;1.10;;;9.30;99.90;;;;;;4944765;29;20286;-75
2024/01/26 05:07:52;;;;;;;3.97;1.02;;;9.20;99.90;;;;;;4911522;29;20063;-75
2024/01/26 05:10:36;;;;;;;2.80;1.25;;;9.20;99.90;;;;;;4927720;29;20034;-75
2024/01/26 05:13:05;;;;;;;3.22;1.15;;;9.20;99.90;;;;;;4927823;29;20039;-76
2024/01/26 05:16:03;;;;;;;3.70;1.10;;;9.30;99.90;;;;;;4944616;29;20038;-76
2024/01/26 05:21:48;;;;;;;1.98;0.88;;;9.30;99.90;;;;;;4923426;29;20084;-76
2024/01/26 05:24:16;;;;;;;1.95;1.10;;;9.30;99.90;;;;;;4908469;29;20028;-76
2024/01/26 05:26:42;;;;;;;;;;;9.30;99.90;;;;;;4910748;29;20032;-77
2024/01/26 05:29:08;;;;;;;2.38;1.08;;;9.30;99.90;;;;;;4926988;29;19903;-75
2024/01/26 05:32:07;;;;;;;3.72;0.95;;;9.30;99.90;;;;;;4926453;29;20418;-74
2024/01/26 05:34:33;;;;;;;3.17;1.10;;;9.30;99.90;;;;;;4911057;29;20028;-75
2024/01/26 05:37:02;;;;;;;2.70;1.02;;;9.30;99.90;;;;;;4926245;29;20040;-75
2024/01/26 05:39:28;;;;;;;3.40;1.05;;;9.30;99.90;;;;;;4927035;29;20047;-77
2024/01/26 05:42:22;;;;;;;2.88;1.20;;;9.30;99.90;;;;;;4910691;29;20031;-75
2024/01/26 05:44:56;;;;;;;3.08;1.15;;;9.30;99.90;;;;;;4911171;29;20179;-75
2024/01/26 05:47:31;;;;;;;4.60;1.80;;;9.30;99.90;;;;;;4908069;29;20038;-76
2024/01/26 05:50:38;;;;;;;6.90;2.10;;;9.30;99.90;;;;;;4888251;29;20108;-78
2024/01/26 05:54:50;;;;;;;7.07;2.25;;;9.30;99.90;;;;;;4908261;29;20032;-78
2024/01/26 05:57:31;;;;;;;6.70;2.63;;;9.30;99.90;;;;;;4907416;29;20080;-77
2024/01/26 05:59:57;;;;;;;6.70;2.08;;;9.40;99.90;;;;;;4908994;29;20333;-75
2024/01/26 06:02:23;;;;;;;4.25;1.83;;;9.30;99.90;;;;;;4911541;29;20048;-75
2024/01/26 06:04:49;;;;;;;3.97;1.40;;;9.30;99.90;;;;;;4916032;29;20032;-77
2024/01/26 06:07:15;;;;;;;2.85;0.95;;;9.20;99.90;;;;;;4911934;29;20028;-78
2024/01/26 06:09:42;;;;;;;2.60;1.02;;;9.20;99.90;;;;;;4928381;29;20076;-77
2024/01/26 06:12:32;;;;;;;4.18;1.38;;;9.20;99.90;;;;;;4927252;29;20020;-77
2024/01/26 06:14:58;;;;;;;2.85;1.30;;;9.10;99.90;;;;;;4911171;29;20032;-77
2024/01/26 06:17:24;;;;;;;2.35;0.90;;;9.00;99.90;;;;;;4926961;29;20051;-79
2024/01/26 06:20:08;;;;;;;2.03;0.98;;;9.00;99.90;;;;;;4922183;29;20088;-78
2024/01/26 06:23:03;;;;;;;3.08;0.90;;;9.10;99.90;;;;;;4910454;29;20129;-77
2024/01/26 06:25:37;;;;;;;2.15;0.70;;;9.20;99.90;;;;;;4906977;29;20028;-77
2024/01/26 06:31:26;;;;;;;1.80;0.60;;;9.30;99.90;;;;;;4916465;29;20241;-77
2024/01/26 06:34:37;;;;;;;1.95;0.50;;;9.40;99.90;;;;;;4925538;29;20110;-77
2024/01/26 06:37:03;;;;;;;5.22;0.60;;;9.50;99.90;;;;;;4943001;29;20063;-77
2024/01/26 06:39:38;;;;;;;1.63;0.50;;;9.60;99.90;;;;;;4929943;29;20032;-76
2024/01/26 06:42:09;;;;;;;2.85;0.40;;;9.70;99.90;;;;;;4929461;29;20028;-78
2024/01/26 06:44:35;;;;;;;2.10;0.40;;;9.80;99.90;;;;;;4929523;29;20023;-76
2024/01/26 06:47:13;;;;;;;2.15;0.60;;;9.80;99.90;;;;;;4940621;29;20241;-78
2024/01/26 06:49:44;;;;;;;1.75;0.63;;;9.90;99.90;;;;;;4946299;29;20107;-78
2024/01/26 06:52:10;;;;;;;1.63;0.55;;;10.00;99.90;;;;;;4929941;29;20221;-78
2024/01/26 06:54:39;;;;;;;2.72;0.60;;;10.00;99.90;;;;;;4915630;29;20023;-78
2024/01/26 06:57:05;;;;;;;1.63;0.50;;;10.10;99.90;;;;;;4913738;29;20039;-79
2024/01/26 06:59:38;;;;;;;2.17;0.57;;;10.20;99.90;;;;;;4924616;29;20306;-80
2024/01/26 07:02:38;;;;;;;1.55;0.40;;;10.20;99.90;;;;;;4929271;29;20032;-79
2024/01/26 07:05:10;;;;;;;2.28;0.60;;;10.20;99.90;;;;;;4928867;29;20244;-77
2024/01/26 07:07:39;;;;;;;3.00;0.50;;;10.30;99.90;;;;;;4950839;28;20042;-80
2024/01/26 07:10:08;;;;;;;2.78;0.70;;;10.30;99.90;;;;;;4929558;29;20086;-78
2024/01/26 07:12:33;;;;;;;2.15;0.52;;;10.40;99.90;;;;;;4950177;29;20031;-78
2024/01/26 07:15:20;;;;;;;2.00;0.85;;;10.40;99.90;;;;;;4959956;29;20015;-80
2024/01/26 07:17:46;;;;;;;2.38;0.30;;;10.50;99.90;;;;;;4932022;29;20045;-78
2024/01/26 07:20:20;;;;;;;2.95;0.50;;;10.50;99.90;;;;;;4948233;29;20270;-78
2024/01/26 07:22:46;;;;;;;1.55;0.40;;;10.60;99.90;;;;;;4946821;29;20059;-78
2024/01/26 07:25:18;;;;;;;1.98;0.60;;;10.70;99.90;;;;;;4929747;29;20028;-78
2024/01/26 07:31:49;;;;;;;0.88;0.30;;;10.70;99.90;;;;;;4911917;29;20082;-79
2024/01/26 07:34:17;;;;;;;;;;;10.70;99.90;;;;;;4929989;29;20058;-76
2024/01/26 07:36:46;;;;;;;1.67;0.38;;;10.70;99.90;;;;;;4932062;29;19907;-77
2024/01/26 07:39:12;;;;;;;2.38;0.70;;;10.80;99.90;;;;;;4932277;29;20019;-77
2024/01/26 07:41:38;;;;;;;5.00;0.55;;;10.80;99.90;;;;;;4932378;29;20254;-76
2024/01/26 07:44:04;;;;;;;3.00;0.60;;;10.80;99.90;;;;;;4954033;29;20105;-79
2024/01/26 07:46:30;;;;;;;1.85;0.57;;;10.80;99.90;;;;;;4930700;29;20230;-77
2024/01/26 07:49:00;;;;;;;1.58;0.40;;;10.80;99.90;;;;;;4920015;29;20364;-79
2024/01/26 07:51:30;;;;;;;2.97;0.60;;;10.80;99.90;;;;;;4944206;29;20227;-76
2024/01/26 07:53:57;;;;;;;2.03;0.40;;;10.80;99.90;;;;;;4927912;29;20074;-75
2024/01/26 07:56:52;;;;;;;3.08;0.88;;;10.90;99.90;;;;;;4932728;29;20059;-77
2024/01/26 07:59:17;;;;;;;1.13;0.50;;;11.00;99.90;;;;;;4929125;29;20092;-74
2024/01/26 08:01:43;;;;;;;1.42;0.50;;;11.00;99.90;;;;;;4963740;29;20245;-76
2024/01/26 08:04:28;;;;;;;1.92;0.43;;;11.10;99.90;;;;;;4937257;29;20024;-76
2024/01/26 08:07:09;;;;;;;2.90;0.50;;;11.10;99.90;;;;;;4946411;28;20035;-76
2024/01/26 08:09:35;;;;;;;2.33;0.50;;;11.20;99.90;;;;;;4951253;29;20058;-76
2024/01/26 08:12:10;;;;;;;2.05;0.65;;;11.20;99.90;;;;;;4934093;29;20039;-76
2024/01/26 08:14:48;;;;;;;2.30;0.77;;;11.20;99.90;;;;;;4927582;29;20099;-75
2024/01/26 08:17:37;;;;;;;2.22;0.45;;;11.20;99.90;;;;;;4912741;29;20317;-74
2024/01/26 08:20:40;;;;;;;1.13;0.52;;;11.30;99.90;;;;;;4927839;29;20050;-75
2024/01/26 08:34:41;;;;;;;2.53;0.63;;;11.30;99.90;;;;;;4868023;29;20048;-75
2024/01/26 08:37:31;;;;;;;1.95;0.55;;;11.40;99.90;;;;;;4867284;29;20250;-76
2024/01/26 08:39:57;;;;;;;1.25;0.35;;;11.40;99.90;;;;;;4881209;29;20048;-75
2024/01/26 08:45:53;;;;;;;1.52;0.43;;;11.50;99.90;;;;;;4867515;29;20265;-75
2024/01/26 08:48:40;;;;;;;2.50;0.45;;;11.60;99.90;;;;;;4876685;29;20231;-75
2024/01/26 08:51:51;;;;;;;2.38;0.65;;;11.60;99.90;;;;;;4851769;29;20315;-75
2024/01/26 08:59:32;;;;;;;1.95;0.47;;;11.70;99.90;;;;;;4805256;29;20097;-76
2024/01/26 09:06:14;;;;;;;1.33;0.45;;;11.80;99.90;;;;;;4727549;30;20032;-74
2024/01/26 09:09:06;;;;;;;2.17;0.70;;;12.00;99.90;;;;;;4761869;30;20037;-73
2024/01/26 09:11:41;;;;;;;2.05;0.57;;;12.10;99.90;;;;;;4762036;30;20105;-74
2024/01/26 09:14:07;;;;;;;2.13;0.60;;;12.10;99.90;;;;;;4761634;30;20132;-73
2024/01/26 09:16:32;;;;;;;2.55;0.80;;;12.10;99.90;;;;;;4762305;30;20064;-74
2024/01/26 09:19:01;;;;;;;1.42;0.55;;;12.20;99.90;;;;;;4761362;30;20048;-74
2024/01/26 09:21:30;;;;;;;2.00;0.60;;;12.30;99.90;;;;;;4761846;30;20457;-75
2024/01/26 09:23:59;;;;;;;1.63;0.50;;;12.40;99.90;;;;;;4761589;30;20381;-74
2024/01/26 09:26:52;;;;;;;1.90;0.60;;;12.40;99.90;;;;;;4762233;30;20079;-76
2024/01/26 09:29:41;;;;;;;1.45;0.40;;;12.40;99.90;;;;;;4744169;30;20083;-75
2024/01/26 09:32:07;;;;;;;1.88;0.50;;;12.50;99.90;;;;;;4728466;30;20070;-74
2024/01/26 09:34:42;;;;;;;2.60;0.60;;;12.60;99.90;;;;;;4784184;29;20046;-73
2024/01/26 09:37:14;;;;;;;2.15;0.52;;;12.50;99.90;;;;;;4832851;29;20050;-74
2024/01/26 09:39:42;;;;;;;1.40;0.45;;;12.50;99.90;;;;;;4833866;29;20050;-74
2024/01/26 09:42:33;;;;;;;1.55;0.60;;;12.40;99.90;;;;;;4870963;29;20040;-73
2024/01/26 09:45:12;;;;;;;1.55;0.50;;;12.30;99.90;;;;;;4909781;29;20082;-75
2024/01/26 09:47:49;;;;;;;1.45;0.55;;;12.20;99.90;;;;;;4953843;29;20050;-75
2024/01/26 09:50:40;;;;;;;2.17;0.80;;;12.20;99.90;;;;;;4957720;29;20028;-74
2024/01/26 09:53:18;;;;;;;1.98;0.45;;;12.30;99.90;;;;;;4964869;29;20028;-73
2024/01/26 09:56:10;;;;;;;1.58;0.50;;;12.30;99.90;;;;;;4933342;29;20039;-75
2024/01/26 09:59:07;;;;;;;1.23;0.45;;;12.30;99.90;;;;;;4949061;29;20062;-73
2024/01/26 10:02:09;;;;;;;1.87;0.80;;;12.30;99.90;;;;;;4949190;29;20027;-74
2024/01/26 10:04:56;;;;;;;1.52;0.70;;;12.40;99.90;;;;;;4905450;29;20033;-75
2024/01/26 10:11:10;;;;;;;2.20;0.90;;;12.40;99.90;;;;;;4906618;29;20104;-74
2024/01/26 10:14:08;;;;;;;2.60;0.68;;;12.40;99.90;;;;;;4906595;29;20120;-74
2024/01/26 10:16:37;;;;;;;2.38;0.60;;;12.50;99.90;;;;;;4891675;29;20048;-75
2024/01/26 10:19:09;;;;;;;1.50;0.52;;;12.50;99.90;;;;;;4891141;29;20032;-76
2024/01/26 10:21:35;;;;;;;1.77;0.70;;;12.50;99.90;;;;;;4891157;29;20032;-74
2024/01/26 10:25:07;;;;;;;1.48;0.60;;;12.60;99.90;;;;;;4875130;29;20044;-74
2024/01/26 10:27:34;;;;;;;2.05;0.52;;;12.80;99.90;;;;;;4869301;29;20094;-75
2024/01/26 10:30:00;;;;;;;2.15;0.50;;;12.70;99.70;;;;;;4839235;29;20319;-74
2024/01/26 10:32:31;;;;;;;1.50;0.63;;;12.70;99.60;;;;;;4853105;29;20064;-73
2024/01/26 10:35:01;;;;;;;2.97;0.70;;;12.80;99.70;;;;;;4868889;29;20247;-74
2024/01/26 10:37:29;;;;;;;2.00;0.70;;;12.70;99.70;;;;;;4854158;29;20049;-75
2024/01/26 10:39:56;;;;;;;3.08;0.80;;;12.80;99.50;;;;;;4869260;29;20259;-75
2024/01/26 10:42:23;;;;;;;1.80;0.70;;;12.80;99.50;;;;;;4885121;29;20041;-75
2024/01/26 10:44:50;;;;;;;4.57;0.70;;;12.70;99.40;;;;;;4887592;29;20049;-76
2024/01/26 10:47:20;;;;;;;2.63;0.70;;;12.80;99.50;;;;;;4884185;29;20303;-73
2024/01/26 10:49:49;;;;;;;2.00;0.50;;;12.70;99.50;;;;;;4869002;29;20041;-75
2024/01/26 10:52:37;;;;;;;2.83;1.05;;;12.70;99.40;;;;;;4853697;29;20292;-73
2024/01/26 10:55:28;;;;;;;4.18;1.38;;;12.80;99.50;;;;;;4835268;29;20029;-74
2024/01/26 10:57:54;;;;;;;2.13;0.77;;;12.80;99.30;;;;;;4899891;29;20067;-75
2024/01/26 11:00:20;;;;;;;2.30;0.65;;;12.80;99.10;;;;;;4946098;29;20034;-75
2024/01/26 11:02:55;;;;;;;3.13;0.73;;;12.90;99.20;;;;;;4946406;29;20028;-74
2024/01/26 11:05:31;;;;;;;1.63;0.52;;;12.90;99.20;;;;;;4913746;29;20043;-75
2024/01/26 11:08:07;;;;;;;2.28;0.80;;;12.90;99.10;;;;;;4945623;29;20031;-76
2024/01/26 11:10:33;;;;;;;2.30;0.65;;;12.90;99.20;;;;;;4929186;29;20088;-74
2024/01/26 11:13:09;;;;;;;1.63;0.40;;;13.00;99.00;;;;;;4945756;29;20027;-75
2024/01/26 11:15:40;;;;;;;2.13;0.60;;;13.00;98.90;;;;;;4928594;29;20044;-75
2024/01/26 11:18:06;;;;;;;1.50;0.70;;;13.00;98.90;;;;;;4924234;29;20040;-74
2024/01/26 11:20:34;;;;;;;3.00;0.60;;;13.00;99.00;;;;;;4945988;29;20080;-75
2024/01/26 11:23:11;;;;;;;1.70;0.57;;;13.00;99.00;;;;;;4944798;29;20159;-76
2024/01/26 11:25:49;;;;;;;1.77;0.57;;;13.00;99.10;;;;;;4945437;29;20333;-75
2024/01/26 11:28:24;;;;;;;1.42;0.52;;;13.00;99.20;;;;;;4945753;29;20039;-76
2024/01/26 11:30:54;;;;;;;2.88;0.60;;;13.00;99.10;;;;;;4933395;29;20027;-75
2024/01/26 11:33:24;;;;;;;2.22;0.73;;;13.00;99.10;;;;;;4916303;29;20343;-74
2024/01/26 11:36:03;;;;;;;2.30;0.70;;;13.00;99.10;;;;;;4916266;29;20381;-75
2024/01/26 11:38:29;;;;;;;2.85;0.60;;;13.00;99.30;;;;;;4907713;29;20058;-74
2024/01/26 11:41:00;;;;;;;2.35;0.65;;;13.10;99.30;;;;;;4906861;29;20328;-75
2024/01/26 11:43:27;;;;;;;1.60;0.60;;;13.00;99.30;;;;;;4907356;29;20032;-75
2024/01/26 11:46:02;;;;;;;2.03;0.70;;;13.10;99.20;;;;;;4907392;29;20333;-74
2024/01/26 11:48:34;;;;;;;2.05;0.70;;;13.20;99.20;;;;;;4916917;29;20056;-74
2024/01/26 11:51:08;;;;;;;1.58;0.50;;;13.20;99.40;;;;;;4907236;29;20044;-75
2024/01/26 11:53:34;;;;;;;2.25;0.80;;;13.10;99.50;;;;;;4907048;29;20054;-75
2024/01/26 11:56:13;;;;;;;1.60;0.70;;;13.20;99.40;;;;;;4907208;29;20043;-74
2024/01/26 11:58:39;;;;;;;3.00;0.70;;;13.10;99.90;;;;;;4907649;29;20044;-75
2024/01/26 12:01:11;;;;;;;2.63;0.68;;;13.10;99.90;;;;;;4905727;29;20067;-75
2024/01/26 12:03:40;;;;;;;1.70;0.68;;;13.10;99.90;;;;;;4907609;29;20097;-76
2024/01/26 12:06:09;;;;;;;2.30;0.60;;;13.00;99.90;;;;;;4906458;29;20032;-75
2024/01/26 12:08:55;;;;;;;2.05;0.60;;;13.00;99.90;;;;;;4907457;29;20041;-74
2024/01/26 12:11:46;;;;;;;2.67;0.65;;;13.10;99.90;;;;;;4906329;29;20080;-73
2024/01/26 12:14:15;;;;;;;2.05;0.65;;;13.00;99.90;;;;;;4906310;29;20036;-77
2024/01/26 12:16:41;;;;;;;1.55;0.60;;;13.00;99.90;;;;;;4923122;29;20118;-74
2024/01/26 12:19:16;;;;;;;1.63;0.50;;;13.00;99.90;;;;;;4925612;29;20043;-74
2024/01/26 12:21:41;;;;;;;1.92;0.50;;;13.10;99.90;;;;;;4926008;29;20032;-74
2024/01/26 12:24:17;;;;;;;1.60;0.50;;;13.00;99.90;;;;;;4914049;29;20267;-75
2024/01/26 12:26:44;;;;;;;4.60;0.50;;;13.10;99.90;;;;;;4925231;29;20039;-75
2024/01/26 12:29:41;;;;;;;1.60;0.57;;;13.10;99.90;;;;;;4916404;29;20206;-78
2024/01/26 12:32:17;;;;;;;1.37;0.50;;;13.00;99.90;;;;;;4873328;29;20048;-77
2024/01/26 12:34:43;;;;;;;1.70;0.60;;;13.00;99.90;;;;;;4909181;29;20447;-77
2024/01/26 12:40:36;;;;;;;1.23;0.50;;;13.00;99.90;;;;;;4928318;29;20152;-76
2024/01/26 12:43:02;;;;;;;1.67;0.57;;;12.90;99.90;;;;;;4927745;29;20096;-77
2024/01/26 12:45:29;;;;;;;1.40;0.40;;;12.90;99.90;;;;;;4929040;29;20032;-77
2024/01/26 12:47:55;;;;;;;2.60;0.47;;;13.00;99.90;;;;;;4919853;29;20020;-76
2024/01/26 12:50:21;;;;;;;1.98;0.50;;;13.00;99.90;;;;;;4909973;29;20040;-77
2024/01/26 12:52:47;;;;;;;1.48;0.43;;;13.00;99.90;;;;;;4913374;29;20044;-76
2024/01/26 12:55:13;;;;;;;1.50;0.70;;;13.10;99.90;;;;;;4912994;29;20017;-77
2024/01/26 12:57:40;;;;;;;1.23;0.43;;;13.00;99.90;;;;;;4922269;29;20357;-75
2024/01/26 13:00:06;;;;;;;1.33;0.50;;;13.10;99.90;;;;;;4928743;29;20094;-76
2024/01/26 13:02:35;;;;;;;2.33;0.40;;;13.00;99.90;;;;;;4928974;29;20083;-77
2024/01/26 13:05:00;;;;;;;;;;;13.00;99.90;;;;;;4928758;29;20108;-75
2024/01/26 13:07:26;;;;;;;1.33;0.40;;;13.10;99.90;;;;;;4929091;29;19907;-76
2024/01/26 13:09:52;;;;;;;1.13;0.40;;;13.00;99.90;;;;;;4928352;29;20294;-76
2024/01/26 13:12:18;;;;;;;1.10;0.57;;;12.90;99.90;;;;;;4928587;29;20087;-75
2024/01/26 13:14:44;;;;;;;1.48;0.50;;;13.00;99.90;;;;;;4922984;29;20321;-76
2024/01/26 13:17:09;;;;;;;1.70;0.50;;;13.00;99.90;;;;;;4914200;29;20302;-76
2024/01/26 13:19:35;;;;;;;1.27;0.50;;;12.90;99.90;;;;;;4911001;29;20040;-75
2024/01/26 13:22:03;;;;;;;3.28;0.77;;;12.80;99.90;;;;;;4927030;29;20028;-76
2024/01/26 13:24:30;;;;;;;1.35;0.60;;;12.80;99.90;;;;;;4928661;29;20031;-77
2024/01/26 13:26:56;;;;;;;1.50;0.50;;;12.80;99.90;;;;;;4928061;29;20318;-76
2024/01/26 13:29:22;;;;;;;1.13;0.35;;;12.80;99.90;;;;;;4927372;29;20039;-76
2024/01/26 13:31:51;;;;;;;3.17;0.70;;;12.70;99.90;;;;;;4935460;29;20109;-76
2024/01/26 13:34:19;;;;;;;4.35;0.77;;;12.80;99.90;;;;;;4946816;29;20035;-77
2024/01/26 13:37:12;;;;;;;1.85;0.50;;;12.60;99.90;;;;;;4958366;29;20027;-79
2024/01/26 16:27:40;;;;;;;0.88;0.20;;;12.10;99.90;;;;;;4964030;29;20030;-77
2024/01/26 16:30:07;;;;;;;1.30;0.52;;;11.90;99.90;;;;;;4965543;28;20221;-77
2024/01/26 16:32:33;;;;;;;0.82;0.40;;;11.70;99.90;;;;;;4965996;28;20023;-79
2024/01/26 16:34:59;;;;;;;2.83;0.50;;;11.60;99.90;;;;;;4963558;29;20194;-77
2024/01/26 16:37:25;;;;;;;1.38;0.32;;;11.50;99.90;;;;;;4963865;29;20039;-79
2024/01/26 16:39:50;;;;;;;2.17;0.95;;;11.40;99.90;;;;;;4979148;28;20070;-79
2024/01/26 16:42:16;;;;;;;1.10;0.40;;;11.40;99.90;;;;;;4962746;29;20122;-79
2024/01/26 16:44:48;;;;;;;1.77;0.50;;;11.30;99.90;;;;;;4964194;29;20027;-79
2024/01/26 16:47:29;;;;;;;2.20;0.70;;;11.20;99.90;;;;;;4970716;28;20093;-77
2024/01/26 16:49:55;;;;;;;1.40;0.40;;;11.20;99.90;;;;;;4962482;28;20030;-79
2024/01/26 16:52:21;;;;;;;1.95;0.50;;;11.10;99.90;;;;;;4962188;29;20150;-79
2024/01/26 16:54:47;;;;;;;2.10;0.60;;;11.00;99.90;;;;;;4979317;28;20580;-79
2024/01/26 16:57:13;;;;;;;0.95;0.40;;;11.00;99.90;;;;;;4962607;28;20106;-80
2024/01/26 17:00:12;;;;;;;2.38;0.50;;;10.90;99.90;;;;;;4962844;29;20058;-79
2024/01/26 17:02:37;;;;;;;0.93;0.28;;;10.90;99.90;;;;;;4981002;28;20030;-78
2024/01/26 17:05:03;;;;;;;1.55;0.60;;;10.90;99.90;;;;;;4981982;28;20031;-80
2024/01/26 17:07:29;;;;;;;2.63;0.57;;;10.90;99.90;;;;;;4976809;28;20229;-78
2024/01/26 17:09:55;;;;;;;1.58;0.50;;;10.90;99.90;;;;;;4962546;28;20031;-79
2024/01/26 17:12:22;;;;;;;1.90;0.65;;;10.90;99.90;;;;;;4981904;28;20078;-79
2024/01/26 17:14:52;;;;;;;1.15;0.40;;;10.90;99.90;;;;;;4983406;28;20027;-79
2024/01/26 17:17:19;;;;;;;1.80;0.60;;;10.90;99.90;;;;;;4980935;28;20043;-78
2024/01/26 17:19:46;;;;;;;2.45;0.68;;;10.90;99.90;;;;;;4976405;28;20023;-79
2024/01/26 17:22:14;;;;;;;3.88;0.60;;;11.00;99.90;;;;;;5006913;28;20025;-78
2024/01/26 17:24:40;;;;;;;2.88;0.60;;;11.00;99.90;;;;;;4987418;28;20094;-78
2024/01/26 17:27:05;;;;;;;3.00;0.70;;;11.10;99.90;;;;;;4966143;29;20042;-78
2024/01/26 17:29:31;;;;;;;2.92;0.75;;;11.00;99.90;;;;;;4966123;29;20071;-78
2024/01/26 17:31:59;;;;;;;3.65;0.90;;;10.90;99.90;;;;;;4969718;28;20014;-79
2024/01/26 17:34:26;;;;;;;2.60;0.85;;;10.90;99.90;;;;;;4949889;29;20035;-80
2024/01/26 17:36:51;;;;;;;2.40;0.70;;;10.90;99.90;;;;;;4983683;28;20027;-79
2024/01/26 17:39:17;;;;;;;1.92;0.80;;;10.80;99.90;;;;;;4986079;28;20173;-79
2024/01/26 17:41:42;;;;;;;3.35;0.93;;;10.80;99.90;;;;;;4969347;28;20061;-79
2024/01/26 17:44:08;;;;;;;4.25;0.90;;;10.70;99.90;;;;;;4980123;28;20027;-80
2024/01/26 17:46:34;;;;;;;3.30;0.82;;;10.50;99.90;;;;;;4931096;29;20027;-79